Time,TemperatureF,DewpointF,PressureIn,WindDirection,WindDirectionDegrees,WindSpeedMPH,WindSpeedGustMPH,Humidity,HourlyPrecipIn,Conditions,Clouds,dailyrainin,SolarRadiationWatts/m^2,SoftwareType,DateUTC
2013-07-10 00:11:00,72.0,49.0,29.98,West,279,0.0,2.0,44,0.00,,,0.00,0,weatherlink.com 1.10,2013-07-10 07:11:00,
2013-07-10 00:26:00,71.1,47.0,29.98,West,280,0.0,5.0,43,0.00,,,0.00,0,weatherlink.com 1.10,2013-07-10 07:26:00,
2013-07-10 00:41:00,69.9,48.0,29.98,West,278,0.0,4.0,46,0.00,,,0.00,0,weatherlink.com 1.10,2013-07-10 07:41:00,
2013-07-10 00:56:00,68.6,49.0,29.98,West,273,3.0,5.0,50,0.00,,,0.00,0,weatherlink.com 1.10,2013-07-10 07:56:00,
2013-07-10 01:11:00,67.6,49.0,29.98,West,273,0.0,3.0,52,0.00,,,0.00,0,weatherlink.com 1.10,2013-07-10 08:11:00,
2013-07-10 01:26:00,67.0,50.0,29.98,West,273,2.0,3.0,55,0.00,,,0.00,0,weatherlink.com 1.10,2013-07-10 08:26:00,
2013-07-10 01:41:00,66.4,50.0,29.98,West,273,1.0,3.0,56,0.00,,,0.00,0,weatherlink.com 1.10,2013-07-10 08:41:00,
2013-07-10 01:56:00,66.0,50.0,29.98,West,273,1.0,2.0,57,0.00,,,0.00,0,weatherlink.com 1.10,2013-07-10 08:56:00,
2013-07-10 02:11:00,65.6,51.0,29.98,West,273,0.0,1.0,59,0.00,,,0.00,0,weatherlink.com 1.10,2013-07-10 09:11:00,
2013-07-10 02:27:00,65.0,51.0,29.98,West,273,0.0,0.0,60,0.00,,,0.00,0,weatherlink.com 1.10,2013-07-10 09:27:00,
2013-07-10 02:42:00,64.3,51.0,29.97,West,273,0.0,0.0,62,0.00,,,0.00,0,weatherlink.com 1.10,2013-07-10 09:42:00,
2013-07-10 02:57:00,63.8,51.0,29.97,West,273,0.0,1.0,63,0.00,,,0.00,0,weatherlink.com 1.10,2013-07-10 09:57:00,
2013-07-10 03:12:00,63.5,51.0,29.97,West,273,0.0,0.0,64,0.00,,,0.00,0,weatherlink.com 1.10,2013-07-10 10:12:00,
2013-07-10 03:27:00,63.0,51.0,29.97,West,273,0.0,0.0,64,0.00,,,0.00,0,weatherlink.com 1.10,2013-07-10 10:27:00,
2013-07-10 03:42:00,62.6,51.0,29.97,West,273,0.0,1.0,67,0.00,,,0.00,0,weatherlink.com 1.10,2013-07-10 10:42:00,
2013-07-10 03:57:00,62.5,51.0,29.97,West,273,0.0,4.0,67,0.00,,,0.00,0,weatherlink.com 1.10,2013-07-10 10:57:00,
2013-07-10 04:12:00,62.2,51.0,29.97,West,273,0.0,1.0,68,0.00,,,0.00,0,weatherlink.com 1.10,2013-07-10 11:12:00,
2013-07-10 04:27:00,61.7,52.0,29.97,West,273,0.0,2.0,70,0.00,,,0.00,0,weatherlink.com 1.10,2013-07-10 11:27:00,
2013-07-10 04:42:00,61.2,51.0,29.97,West,273,0.0,3.0,70,0.00,,,0.00,0,weatherlink.com 1.10,2013-07-10 11:42:00,
2013-07-10 04:57:00,60.5,52.0,29.97,West,273,2.0,3.0,73,0.00,,,0.00,0,weatherlink.com 1.10,2013-07-10 11:57:00,
2013-07-10 05:12:00,59.6,52.0,29.98,West,273,1.0,4.0,75,0.00,,,0.00,0,weatherlink.com 1.10,2013-07-10 12:12:00,
2013-07-10 05:27:00,59.0,52.0,29.98,West,273,0.0,2.0,77,0.00,,,0.00,0,weatherlink.com 1.10,2013-07-10 12:27:00,
2013-07-10 05:42:00,58.2,52.0,29.98,West,272,0.0,4.0,79,0.00,,,0.00,0,weatherlink.com 1.10,2013-07-10 12:42:00,
2013-07-10 05:57:00,57.6,52.0,29.98,West,269,2.0,5.0,82,0.00,,,0.00,0,weatherlink.com 1.10,2013-07-10 12:57:00,
2013-07-10 06:12:00,57.4,52.0,29.99,West,269,0.0,5.0,83,0.00,,,0.00,9,weatherlink.com 1.10,2013-07-10 13:12:00,
2013-07-10 06:27:00,57.3,52.0,29.99,West,269,0.0,2.0,83,0.00,,,0.00,16,weatherlink.com 1.10,2013-07-10 13:27:00,
2013-07-10 06:42:00,57.3,53.0,29.99,West,269,1.0,3.0,84,0.00,,,0.00,19,weatherlink.com 1.10,2013-07-10 13:42:00,
2013-07-10 06:57:00,57.6,53.0,29.99,West,269,0.0,3.0,84,0.00,,,0.00,25,weatherlink.com 1.10,2013-07-10 13:57:00,
2013-07-10 07:12:00,58.2,53.0,29.99,West,269,0.0,3.0,84,0.00,,,0.00,30,weatherlink.com 1.10,2013-07-10 14:12:00,
2013-07-10 07:27:00,58.7,54.0,29.99,ESE,113,0.0,3.0,83,0.00,,,0.00,81,weatherlink.com 1.10,2013-07-10 14:27:00,
2013-07-10 07:42:00,59.4,54.0,30.00,SSE,153,0.0,3.0,83,0.00,,,0.00,35,weatherlink.com 1.10,2013-07-10 14:42:00,
2013-07-10 07:57:00,60.1,55.0,30.00,ESE,117,2.0,4.0,82,0.00,,,0.00,49,weatherlink.com 1.10,2013-07-10 14:57:00,
2013-07-10 08:12:00,60.7,55.0,29.99,WSW,246,0.0,3.0,81,0.00,,,0.00,40,weatherlink.com 1.10,2013-07-10 15:12:00,
2013-07-10 08:27:00,61.8,55.0,29.99,South,186,0.0,3.0,79,0.00,,,0.00,46,weatherlink.com 1.10,2013-07-10 15:27:00,
2013-07-10 08:42:00,63.0,55.0,29.99,WSW,257,1.0,6.0,75,0.00,,,0.00,47,weatherlink.com 1.10,2013-07-10 15:42:00,
2013-07-10 08:57:00,64.0,55.0,29.98,West,270,0.0,5.0,73,0.00,,,0.00,49,weatherlink.com 1.10,2013-07-10 15:57:00,
2013-07-10 09:12:00,65.5,55.0,29.99,West,273,0.0,4.0,70,0.00,,,0.00,311,weatherlink.com 1.10,2013-07-10 16:12:00,
2013-07-10 09:27:00,67.3,56.0,29.98,SW,221,5.0,6.0,67,0.00,,,0.00,592,weatherlink.com 1.10,2013-07-10 16:27:00,
2013-07-10 09:42:00,68.4,56.0,29.98,WSW,241,2.0,8.0,64,0.00,,,0.00,640,weatherlink.com 1.10,2013-07-10 16:42:00,
2013-07-10 09:58:00,70.1,57.0,29.97,West,273,5.0,5.0,63,0.00,,,0.00,682,weatherlink.com 1.10,2013-07-10 16:58:00,
2013-07-10 10:13:00,71.2,56.0,29.97,WSW,256,1.0,6.0,59,0.00,,,0.00,717,weatherlink.com 1.10,2013-07-10 17:13:00,
2013-07-10 10:28:00,72.9,56.0,29.97,South,172,1.0,5.0,56,0.00,,,0.00,754,weatherlink.com 1.10,2013-07-10 17:28:00,
2013-07-10 10:43:00,74.8,57.0,29.96,West,264,1.0,6.0,54,0.00,,,0.00,786,weatherlink.com 1.10,2013-07-10 17:43:00,
2013-07-10 10:58:00,76.3,56.0,29.96,WSW,248,1.0,6.0,50,0.00,,,0.00,812,weatherlink.com 1.10,2013-07-10 17:58:00,
2013-07-10 11:13:00,77.3,54.0,29.96,West,263,5.0,6.0,45,0.00,,,0.00,842,weatherlink.com 1.10,2013-07-10 18:13:00,
2013-07-10 11:28:00,79.0,56.0,29.96,West,275,5.0,6.0,46,0.00,,,0.00,865,weatherlink.com 1.10,2013-07-10 18:28:00,
2013-07-10 11:43:00,80.7,56.0,29.96,WNW,288,1.0,6.0,43,0.00,,,0.00,888,weatherlink.com 1.10,2013-07-10 18:43:00,
2013-07-10 11:58:00,83.4,56.0,29.96,West,263,2.0,6.0,39,0.00,,,0.00,911,weatherlink.com 1.10,2013-07-10 18:58:00,
2013-07-10 12:13:00,84.2,57.0,29.96,West,264,6.0,6.0,39,0.00,,,0.00,918,weatherlink.com 1.10,2013-07-10 19:13:00,
2013-07-10 12:28:00,84.8,56.0,29.96,WSW,238,3.0,6.0,38,0.00,,,0.00,935,weatherlink.com 1.10,2013-07-10 19:28:00,
2013-07-10 12:43:00,85.5,56.0,29.95,WSW,248,3.0,6.0,36,0.00,,,0.00,939,weatherlink.com 1.10,2013-07-10 19:43:00,
2013-07-10 12:58:00,86.8,56.0,29.95,WSW,253,1.0,8.0,35,0.00,,,0.00,940,weatherlink.com 1.10,2013-07-10 19:58:00,
2013-07-10 13:13:00,87.4,55.0,29.95,WSW,257,9.0,10.0,33,0.00,,,0.00,958,weatherlink.com 1.10,2013-07-10 20:13:00,
2013-07-10 13:28:00,87.0,57.0,29.95,WNW,302,4.0,10.0,36,0.00,,,0.00,846,weatherlink.com 1.10,2013-07-10 20:28:00,
2013-07-10 13:43:00,87.3,56.0,29.95,West,263,1.0,8.0,34,0.00,,,0.00,954,weatherlink.com 1.10,2013-07-10 20:43:00,
2013-07-10 13:58:00,87.9,55.0,29.94,WNW,286,2.0,10.0,33,0.00,,,0.00,956,weatherlink.com 1.10,2013-07-10 20:58:00,
2013-07-10 14:13:00,89.3,53.0,29.94,SW,232,0.0,8.0,29,0.00,,,0.00,988,weatherlink.com 1.10,2013-07-10 21:13:00,
2013-07-10 14:28:00,90.1,53.0,29.93,WSW,251,0.0,7.0,28,0.00,,,0.00,610,weatherlink.com 1.10,2013-07-10 21:28:00,
2013-07-10 14:44:00,91.2,53.0,29.92,WSW,254,0.0,8.0,27,0.00,,,0.00,415,weatherlink.com 1.10,2013-07-10 21:44:00,
2013-07-10 14:59:00,91.0,52.0,29.92,West,263,7.0,11.0,26,0.00,,,0.00,452,weatherlink.com 1.10,2013-07-10 21:59:00,
2013-07-10 15:14:00,89.2,52.0,29.92,West,263,5.0,11.0,28,0.00,,,0.00,417,weatherlink.com 1.10,2013-07-10 22:14:00,
2013-07-10 15:29:00,90.0,53.0,29.91,WNW,286,3.0,9.0,28,0.00,,,0.00,355,weatherlink.com 1.10,2013-07-10 22:29:00,
2013-07-10 15:44:00,88.9,53.0,29.91,West,274,10.0,10.0,29,0.00,,,0.00,343,weatherlink.com 1.10,2013-07-10 22:44:00,
2013-07-10 15:59:00,88.1,53.0,29.91,WNW,290,5.0,11.0,30,0.00,,,0.00,587,weatherlink.com 1.10,2013-07-10 22:59:00,
2013-07-10 16:14:00,87.7,52.0,29.90,West,278,5.0,13.0,29,0.00,,,0.00,654,weatherlink.com 1.10,2013-07-10 23:14:00,
2013-07-10 16:29:00,86.9,52.0,29.90,West,280,9.0,14.0,30,0.00,,,0.00,652,weatherlink.com 1.10,2013-07-10 23:29:00,
2013-07-10 16:44:00,86.6,51.0,29.90,West,269,7.0,14.0,29,0.00,,,0.00,673,weatherlink.com 1.10,2013-07-10 23:44:00,
2013-07-10 16:59:00,85.3,51.0,29.90,West,273,8.0,18.0,31,0.00,,,0.00,670,weatherlink.com 1.10,2013-07-10 23:59:00,
2013-07-10 17:14:00,84.3,51.0,29.90,WSW,249,8.0,15.0,32,0.00,,,0.00,577,weatherlink.com 1.10,2013-07-11 00:14:00,
2013-07-10 17:29:00,84.1,51.0,29.90,West,265,6.0,15.0,32,0.00,,,0.00,522,weatherlink.com 1.10,2013-07-11 00:29:00,
2013-07-10 17:44:00,82.3,50.0,29.89,WSW,246,6.0,14.0,33,0.00,,,0.00,492,weatherlink.com 1.10,2013-07-11 00:44:00,
2013-07-10 17:59:00,82.1,51.0,29.89,West,269,8.0,15.0,34,0.00,,,0.00,408,weatherlink.com 1.10,2013-07-11 00:59:00,
2013-07-10 18:14:00,81.1,51.0,29.89,WSW,256,7.0,15.0,35,0.00,,,0.00,346,weatherlink.com 1.10,2013-07-11 01:14:00,
2013-07-10 18:29:00,79.3,51.0,29.89,WSW,254,7.0,15.0,37,0.00,,,0.00,288,weatherlink.com 1.10,2013-07-11 01:29:00,
2013-07-10 18:44:00,77.8,51.0,29.89,West,267,10.0,16.0,39,0.00,,,0.00,179,weatherlink.com 1.10,2013-07-11 01:44:00,
2013-07-10 18:59:00,77.2,50.0,29.89,West,280,5.0,14.0,39,0.00,,,0.00,121,weatherlink.com 1.10,2013-07-11 01:59:00,
2013-07-10 19:14:00,76.7,51.0,29.89,West,261,7.0,14.0,40,0.00,,,0.00,211,weatherlink.com 1.10,2013-07-11 02:14:00,
2013-07-10 19:29:00,75.5,50.0,29.90,West,263,8.0,13.0,41,0.00,,,0.00,148,weatherlink.com 1.10,2013-07-11 02:29:00,
2013-07-10 19:44:00,74.4,50.0,29.90,WNW,285,7.0,15.0,42,0.00,,,0.00,90,weatherlink.com 1.10,2013-07-11 02:44:00,
2013-07-10 19:59:00,72.5,50.0,29.91,West,259,8.0,14.0,45,0.00,,,0.00,40,weatherlink.com 1.10,2013-07-11 02:59:00,
2013-07-10 20:14:00,70.8,49.0,29.91,WSW,250,10.0,13.0,47,0.00,,,0.00,18,weatherlink.com 1.10,2013-07-11 03:14:00,
2013-07-10 20:29:00,68.9,49.0,29.91,WSW,257,5.0,11.0,49,0.00,,,0.00,5,weatherlink.com 1.10,2013-07-11 03:29:00,
2013-07-10 20:44:00,67.7,50.0,29.92,South,183,0.0,9.0,53,0.00,,,0.00,0,weatherlink.com 1.10,2013-07-11 03:44:00,
2013-07-10 20:59:00,66.3,50.0,29.93,WSW,241,9.0,11.0,57,0.00,,,0.00,0,weatherlink.com 1.10,2013-07-11 03:59:00,
2013-07-10 21:14:00,64.9,51.0,29.93,WNW,286,5.0,10.0,61,0.00,,,0.00,0,weatherlink.com 1.10,2013-07-11 04:14:00,
2013-07-10 21:29:00,63.5,51.0,29.94,West,272,4.0,9.0,64,0.00,,,0.00,0,weatherlink.com 1.10,2013-07-11 04:29:00,
2013-07-10 21:44:00,62.5,51.0,29.94,West,271,5.0,9.0,66,0.00,,,0.00,0,weatherlink.com 1.10,2013-07-11 04:44:00,
2013-07-10 21:59:00,61.4,51.0,29.94,West,259,6.0,10.0,69,0.00,,,0.00,0,weatherlink.com 1.10,2013-07-11 04:59:00,
2013-07-10 22:14:00,60.8,51.0,29.95,West,261,7.0,10.0,71,0.00,,,0.00,0,weatherlink.com 1.10,2013-07-11 05:14:00,
2013-07-10 22:29:00,60.3,52.0,29.95,WSW,246,4.0,8.0,73,0.00,,,0.00,0,weatherlink.com 1.10,2013-07-11 05:29:00,
2013-07-10 22:44:00,59.4,51.0,29.95,West,270,4.0,9.0,75,0.00,,,0.00,0,weatherlink.com 1.10,2013-07-11 05:44:00,
2013-07-10 22:59:00,58.8,52.0,29.95,SW,219,6.0,10.0,77,0.00,,,0.00,0,weatherlink.com 1.10,2013-07-11 05:59:00,
2013-07-10 23:14:00,58.2,52.0,29.95,WSW,254,3.0,12.0,79,0.00,,,0.00,0,weatherlink.com 1.10,2013-07-11 06:14:00,
2013-07-10 23:29:00,57.3,52.0,29.96,WSW,240,5.0,9.0,81,0.00,,,0.00,0,weatherlink.com 1.10,2013-07-11 06:29:00,
2013-07-10 23:44:00,56.8,51.0,29.96,WSW,251,5.0,8.0,82,0.00,,,0.00,0,weatherlink.com 1.10,2013-07-11 06:44:00,
2013-07-10 23:59:00,56.0,51.0,29.96,WSW,257,4.0,8.0,84,0.00,,,0.00,0,weatherlink.com 1.10,2013-07-11 06:59:00,